Time;durP1;ratioP1;P1;durP2;ratioP2;P2;SDS_P1;SDS_P2;PMS_P1;PMS_P2;Temp;Humidity;BMP_temperature;BMP_pressure;BME280_temperature;BME280_humidity;BME280_pressure;Samples;Min_cycle;Max_cycle;Signal;HPM_P1;HPM_P2
2021/09/08 00:01:14;;;;;;;15.10;9.70;;;12.50;99.90;;;;;;5008640;28;20189;-60
2021/09/08 00:03:40;;;;;;;17.00;11.07;;;12.50;99.90;;;;;;5007574;28;20263;-60
2021/09/08 00:06:05;;;;;;;16.53;9.80;;;12.50;99.90;;;;;;5006819;28;20705;-60
2021/09/08 00:08:31;;;;;;;17.13;10.63;;;12.50;99.90;;;;;;5009480;28;20188;-61
2021/09/08 00:10:56;;;;;;;17.30;9.83;;;12.50;99.90;;;;;;5008482;28;20540;-58
2021/09/08 00:13:22;;;;;;;16.63;10.53;;;12.50;99.90;;;;;;5007078;28;20584;-60
2021/09/08 00:15:48;;;;;;;15.00;11.03;;;12.40;99.90;;;;;;5009694;28;20188;-60
2021/09/08 00:18:14;;;;;;;16.17;11.40;;;12.40;99.90;;;;;;5006292;28;21295;-60
2021/09/08 00:20:39;;;;;;;14.20;10.40;;;12.40;99.90;;;;;;5006432;28;20303;-62
2021/09/08 00:23:05;;;;;;;16.30;10.80;;;12.40;99.90;;;;;;4990852;28;20640;-60
2021/09/08 00:25:33;;;;;;;14.80;10.13;;;12.30;99.90;;;;;;5008863;28;20208;-59
2021/09/08 00:27:59;;;;;;;19.80;10.33;;;12.30;99.90;;;;;;4992308;28;20695;-61
2021/09/08 00:30:25;;;;;;;17.27;10.40;;;12.20;99.90;;;;;;4989466;28;20432;-60
2021/09/08 00:32:50;;;;;;;16.80;10.60;;;12.20;99.90;;;;;;5009032;28;20235;-59
2021/09/08 00:35:16;;;;;;;13.73;9.40;;;12.20;99.90;;;;;;5007985;28;20810;-59
2021/09/08 00:37:42;;;;;;;15.47;10.57;;;12.10;99.90;;;;;;5008502;28;20590;-62
2021/09/08 00:40:09;;;;;;;15.80;11.00;;;12.10;99.90;;;;;;5005342;28;20181;-61
2021/09/08 00:42:35;;;;;;;15.40;10.10;;;12.10;99.90;;;;;;4988053;28;20895;-59
2021/09/08 00:45:01;;;;;;;17.83;10.20;;;12.10;99.90;;;;;;4991036;28;20538;-61
2021/09/08 00:47:27;;;;;;;23.80;10.20;;;12.10;99.90;;;;;;5008861;28;21101;-61
2021/09/08 00:49:52;;;;;;;15.60;9.80;;;12.00;99.90;;;;;;5006609;28;20195;-60
2021/09/08 00:52:18;;;;;;;17.20;10.60;;;12.00;99.90;;;;;;5006291;28;20505;-61
2021/09/08 00:54:49;;;;;;;17.43;9.50;;;12.00;99.90;;;;;;5008420;28;20184;-61
2021/09/08 00:57:17;;;;;;;15.53;10.73;;;12.00;99.90;;;;;;5007392;28;20304;-59
2021/09/08 00:59:43;;;;;;;14.67;10.40;;;11.90;99.90;;;;;;5007851;28;20430;-59
2021/09/08 01:02:10;;;;;;;15.67;10.47;;;11.90;99.90;;;;;;4991942;28;20492;-62
2021/09/08 01:04:36;;;;;;;17.67;10.03;;;11.90;99.90;;;;;;5008541;28;20435;-59
2021/09/08 01:07:03;;;;;;;15.57;10.40;;;11.90;99.90;;;;;;4988087;28;20439;-60
2021/09/08 01:09:29;;;;;;;17.70;10.63;;;11.90;99.90;;;;;;5006866;28;20439;-61
2021/09/08 01:11:55;;;;;;;15.30;10.13;;;11.80;99.90;;;;;;5010059;28;20450;-60
2021/09/08 01:14:21;;;;;;;17.50;11.43;;;11.80;99.90;;;;;;5003043;28;20617;-59
2021/09/08 01:16:52;;;;;;;19.07;11.30;;;11.80;99.90;;;;;;5002739;28;20526;-60
2021/09/08 01:19:18;;;;;;;13.77;9.80;;;11.80;99.90;;;;;;5007968;28;20230;-59
2021/09/08 01:21:43;;;;;;;19.00;10.93;;;11.80;99.90;;;;;;5006839;28;20550;-59
2021/09/08 01:24:10;;;;;;;16.50;11.27;;;11.70;99.90;;;;;;5005126;28;20541;-60
2021/09/08 01:26:39;;;;;;;15.40;11.20;;;11.70;99.90;;;;;;4983056;28;20204;-61
2021/09/08 01:29:06;;;;;;;13.90;10.00;;;11.70;99.90;;;;;;5006229;28;20427;-60
2021/09/08 01:31:33;;;;;;;13.60;9.87;;;11.70;99.90;;;;;;5006866;28;21087;-60
2021/09/08 01:33:58;;;;;;;17.00;10.90;;;11.70;99.90;;;;;;5006067;28;20458;-60
2021/09/08 01:36:24;;;;;;;19.60;10.20;;;11.60;99.90;;;;;;5004257;28;21078;-59
2021/09/08 01:38:50;;;;;;;16.33;10.80;;;11.60;99.90;;;;;;4986323;28;20184;-60
2021/09/08 01:41:16;;;;;;;15.73;10.40;;;11.60;99.90;;;;;;5007476;28;20435;-60
2021/09/08 01:43:44;;;;;;;18.50;11.83;;;11.60;99.90;;;;;;4986577;28;20189;-60
2021/09/08 01:46:20;;;;;;;15.83;9.13;;;11.60;99.90;;;;;;5007827;28;20231;-60
2021/09/08 01:48:46;;;;;;;15.83;10.43;;;11.60;99.90;;;;;;5002322;28;20442;-61
2021/09/08 01:51:13;;;;;;;12.90;9.50;;;11.60;99.90;;;;;;5004303;28;20430;-60
2021/09/08 01:53:38;;;;;;;18.90;11.40;;;11.50;99.90;;;;;;4990736;28;20534;-61
2021/09/08 01:56:04;;;;;;;18.57;11.47;;;11.50;99.90;;;;;;5004474;28;20557;-62
2021/09/08 01:58:31;;;;;;;17.77;11.43;;;11.50;99.90;;;;;;5006079;28;20206;-61
2021/09/08 02:00:57;;;;;;;15.13;10.73;;;11.50;99.90;;;;;;5009128;28;20740;-60
2021/09/08 02:03:25;;;;;;;19.70;11.10;;;11.40;99.90;;;;;;5007519;28;20486;-60
2021/09/08 02:05:51;;;;;;;14.80;10.90;;;11.40;99.90;;;;;;5007817;28;20461;-60
2021/09/08 02:08:17;;;;;;;16.77;11.33;;;11.30;99.90;;;;;;4989464;28;20435;-61
2021/09/08 02:10:42;;;;;;;16.90;10.43;;;11.30;99.90;;;;;;5022050;28;20169;-63
2021/09/08 02:13:08;;;;;;;18.07;10.80;;;11.30;99.90;;;;;;5007339;28;20196;-59
2021/09/08 02:15:34;;;;;;;16.57;10.57;;;11.30;99.90;;;;;;5008531;28;20180;-59
2021/09/08 02:17:59;;;;;;;15.50;10.47;;;11.30;99.90;;;;;;5006185;28;20180;-60
2021/09/08 02:20:25;;;;;;;14.93;10.80;;;11.20;99.90;;;;;;5007328;28;20184;-60
2021/09/08 02:22:51;;;;;;;16.70;11.00;;;11.20;99.90;;;;;;5008441;28;20764;-58
2021/09/08 02:25:17;;;;;;;14.93;10.27;;;11.20;99.90;;;;;;5005821;28;20459;-58
2021/09/08 02:27:43;;;;;;;18.00;11.60;;;11.20;99.90;;;;;;5005459;28;20183;-59
2021/09/08 02:30:09;;;;;;;17.50;11.70;;;11.20;99.90;;;;;;5008386;28;20172;-59
2021/09/08 02:32:36;;;;;;;16.70;11.30;;;11.10;99.90;;;;;;5007793;28;20467;-59
2021/09/08 02:35:02;;;;;;;21.50;12.30;;;11.10;99.90;;;;;;5007141;28;20438;-59
2021/09/08 02:37:28;;;;;;;15.20;10.30;;;11.10;99.90;;;;;;5005783;28;20516;-60
2021/09/08 02:39:54;;;;;;;18.33;10.80;;;11.10;99.90;;;;;;5008683;28;20458;-60
2021/09/08 02:42:19;;;;;;;15.30;10.67;;;11.10;99.90;;;;;;5008212;28;20291;-59
2021/09/08 02:44:45;;;;;;;13.30;9.30;;;11.10;99.90;;;;;;5006262;28;20196;-60
2021/09/08 02:47:11;;;;;;;14.73;9.67;;;11.10;99.90;;;;;;4995364;28;20184;-60
2021/09/08 02:49:37;;;;;;;14.50;10.17;;;11.00;99.90;;;;;;5006083;28;20178;-60
2021/09/08 02:52:03;;;;;;;13.30;9.50;;;11.00;99.90;;;;;;5007204;28;20439;-60
2021/09/08 02:54:28;;;;;;;16.00;10.73;;;11.00;99.90;;;;;;5007320;28;20172;-59
2021/09/08 02:56:54;;;;;;;16.50;10.60;;;11.00;99.90;;;;;;5006923;28;20603;-59
2021/09/08 02:59:20;;;;;;;15.10;9.57;;;10.90;99.90;;;;;;5007509;28;20195;-58
2021/09/08 03:01:46;;;;;;;15.67;10.40;;;10.90;99.90;;;;;;5006307;28;20203;-59
2021/09/08 03:04:11;;;;;;;16.20;10.77;;;10.90;99.90;;;;;;4993952;28;20196;-60
2021/09/08 03:06:37;;;;;;;15.03;10.80;;;10.80;99.90;;;;;;5018613;28;20196;-59
2021/09/08 03:09:02;;;;;;;15.00;10.00;;;10.80;99.90;;;;;;4992541;28;20303;-59
2021/09/08 03:11:28;;;;;;;20.80;10.37;;;10.80;99.90;;;;;;5006663;28;20188;-59
2021/09/08 03:13:54;;;;;;;18.87;10.30;;;10.80;99.90;;;;;;4991027;28;20274;-61
2021/09/08 03:16:20;;;;;;;16.47;10.50;;;10.80;99.90;;;;;;5007996;28;20188;-59
2021/09/08 03:18:46;;;;;;;23.93;12.53;;;10.80;99.90;;;;;;4989822;28;20870;-60
2021/09/08 03:21:12;;;;;;;14.90;10.50;;;10.70;99.90;;;;;;5007294;28;20191;-61
2021/09/08 03:23:37;;;;;;;16.00;10.97;;;10.70;99.90;;;;;;5006567;28;20196;-59
2021/09/08 03:26:04;;;;;;;16.90;10.93;;;10.70;99.90;;;;;;5006667;28;20246;-59
2021/09/08 03:28:30;;;;;;;16.50;10.53;;;10.70;99.90;;;;;;5004614;28;20184;-59
2021/09/08 03:30:55;;;;;;;17.60;11.10;;;10.70;99.90;;;;;;4990931;28;20439;-59
2021/09/08 03:33:21;;;;;;;19.90;11.20;;;10.70;99.90;;;;;;5009596;28;20212;-59
2021/09/08 03:35:47;;;;;;;14.33;10.43;;;10.70;99.90;;;;;;5007133;28;20712;-59
2021/09/08 03:38:13;;;;;;;21.53;10.87;;;10.70;99.90;;;;;;5004857;28;20207;-60
2021/09/08 03:40:39;;;;;;;15.90;11.00;;;10.70;99.90;;;;;;5005899;28;20521;-60
2021/09/08 03:43:05;;;;;;;15.13;10.23;;;10.70;99.90;;;;;;5006633;28;20335;-59
2021/09/08 03:45:30;;;;;;;18.50;11.33;;;10.60;99.90;;;;;;5007692;28;20192;-60
2021/09/08 03:47:56;;;;;;;16.70;11.20;;;10.60;99.90;;;;;;5005574;28;20264;-59
2021/09/08 03:50:22;;;;;;;15.70;10.97;;;10.60;99.90;;;;;;5005107;28;20641;-59
2021/09/08 03:52:47;;;;;;;16.10;11.00;;;10.60;99.90;;;;;;5002915;28;20209;-60
2021/09/08 03:55:13;;;;;;;18.47;11.40;;;10.60;99.90;;;;;;5005107;28;20169;-57
2021/09/08 03:57:39;;;;;;;15.03;10.43;;;10.60;99.90;;;;;;4990766;28;20188;-60
2021/09/08 04:00:06;;;;;;;19.57;10.73;;;10.50;99.90;;;;;;5008335;28;20565;-59
2021/09/08 04:02:32;;;;;;;20.20;11.60;;;10.50;99.90;;;;;;5006987;28;20219;-60
2021/09/08 04:04:58;;;;;;;17.50;11.50;;;10.50;99.90;;;;;;5000754;28;20460;-61
2021/09/08 04:07:25;;;;;;;18.67;11.90;;;10.50;99.90;;;;;;4999240;28;20176;-58
2021/09/08 04:09:51;;;;;;;18.33;11.87;;;10.50;99.90;;;;;;5000562;28;20432;-59
2021/09/08 04:12:16;;;;;;;19.63;12.10;;;10.50;99.90;;;;;;5002055;28;20439;-55
2021/09/08 04:14:42;;;;;;;19.23;11.63;;;10.50;99.90;;;;;;4998700;28;20176;-55
2021/09/08 04:17:07;;;;;;;15.80;11.10;;;10.50;99.90;;;;;;4998072;28;20209;-53
2021/09/08 04:19:33;;;;;;;20.77;13.73;;;10.50;99.90;;;;;;4997870;28;20204;-55
2021/09/08 04:21:59;;;;;;;17.07;12.30;;;10.40;99.90;;;;;;4999303;28;20191;-56
2021/09/08 04:24:24;;;;;;;17.33;11.70;;;10.40;99.90;;;;;;4998656;28;20185;-55
2021/09/08 04:26:50;;;;;;;18.77;12.83;;;10.40;99.90;;;;;;4997573;28;20250;-59
2021/09/08 04:29:16;;;;;;;15.23;11.67;;;10.40;99.90;;;;;;4979544;28;20180;-59
2021/09/08 04:31:43;;;;;;;19.33;11.47;;;10.30;99.90;;;;;;4998985;28;20188;-60
2021/09/08 04:34:09;;;;;;;17.70;11.60;;;10.30;99.90;;;;;;4995573;28;20311;-60
2021/09/08 04:36:35;;;;;;;15.67;11.63;;;10.30;99.90;;;;;;4996549;28;20863;-59
2021/09/08 04:39:00;;;;;;;23.43;11.50;;;10.30;99.90;;;;;;4992069;28;20621;-59
2021/09/08 04:41:27;;;;;;;17.90;11.70;;;10.30;99.90;;;;;;5003761;28;20180;-59
2021/09/08 04:43:52;;;;;;;18.10;11.53;;;10.20;99.90;;;;;;4991858;28;20196;-59
2021/09/08 04:46:18;;;;;;;20.70;10.17;;;10.20;99.90;;;;;;5014633;28;20459;-60
2021/09/08 04:48:44;;;;;;;15.67;11.13;;;10.20;99.90;;;;;;4998604;28;20653;-61
2021/09/08 04:51:10;;;;;;;15.83;10.93;;;10.20;99.90;;;;;;4997413;28;20188;-55
2021/09/08 04:53:35;;;;;;;18.83;11.03;;;10.10;99.90;;;;;;5002816;28;20559;-59
2021/09/08 04:56:01;;;;;;;20.23;11.87;;;10.10;99.90;;;;;;5004098;28;20203;-59
2021/09/08 04:58:26;;;;;;;15.57;10.33;;;10.10;99.90;;;;;;5003421;28;20259;-59
2021/09/08 05:00:52;;;;;;;16.93;11.70;;;10.10;99.90;;;;;;4999415;28;20176;-60
2021/09/08 05:03:18;;;;;;;18.63;11.00;;;10.10;99.90;;;;;;5002001;28;20882;-59
2021/09/08 05:05:44;;;;;;;21.27;10.90;;;10.10;99.90;;;;;;5005714;28;21312;-59
2021/09/08 05:08:09;;;;;;;20.97;12.53;;;10.10;99.90;;;;;;5004896;28;20181;-60
2021/09/08 05:10:37;;;;;;;18.13;11.10;;;10.10;99.90;;;;;;5003164;28;20252;-60
2021/09/08 05:13:03;;;;;;;19.40;12.30;;;10.10;99.90;;;;;;5002635;28;20204;-60
2021/09/08 05:15:29;;;;;;;15.07;11.67;;;10.20;99.90;;;;;;5006253;28;20807;-60
2021/09/08 05:17:54;;;;;;;19.50;11.73;;;10.20;99.90;;;;;;5001237;28;20176;-58
2021/09/08 05:20:20;;;;;;;15.87;11.77;;;10.20;99.90;;;;;;5000166;28;20246;-62
2021/09/08 05:22:45;;;;;;;18.23;11.40;;;10.20;99.90;;;;;;5001753;28;20200;-60
2021/09/08 05:25:12;;;;;;;16.70;11.10;;;10.20;99.90;;;;;;5001874;28;20191;-60
2021/09/08 05:27:37;;;;;;;19.57;11.37;;;10.20;99.90;;;;;;5003745;28;20169;-59
2021/09/08 05:30:04;;;;;;;19.90;10.40;;;10.20;99.90;;;;;;4988157;28;20432;-59
2021/09/08 05:32:30;;;;;;;15.90;10.37;;;10.30;99.90;;;;;;5004279;28;20490;-60
2021/09/08 05:34:56;;;;;;;19.23;11.37;;;10.30;99.90;;;;;;5006263;28;20468;-61
2021/09/08 05:37:23;;;;;;;21.60;11.77;;;10.30;99.90;;;;;;5003765;28;20667;-61
2021/09/08 05:39:49;;;;;;;18.87;10.53;;;10.30;99.90;;;;;;5006809;28;20484;-61
2021/09/08 05:42:14;;;;;;;16.17;11.20;;;10.40;99.90;;;;;;5005286;28;20530;-62
2021/09/08 05:44:40;;;;;;;19.67;11.40;;;10.40;99.90;;;;;;4990840;28;20263;-60
2021/09/08 05:47:06;;;;;;;22.73;12.33;;;10.50;99.90;;;;;;4990963;28;20548;-60
2021/09/08 05:49:31;;;;;;;20.63;12.10;;;10.60;99.90;;;;;;4985295;28;20751;-60
2021/09/08 05:51:57;;;;;;;19.80;13.20;;;10.60;99.90;;;;;;4993159;28;20181;-60
2021/09/08 05:54:22;;;;;;;19.70;11.67;;;10.70;99.90;;;;;;5007353;28;20204;-61
2021/09/08 05:56:48;;;;;;;16.50;11.03;;;10.70;99.90;;;;;;4987590;28;20212;-60
2021/09/08 05:59:14;;;;;;;25.90;12.23;;;10.90;99.90;;;;;;5014352;28;20585;-60
2021/09/08 06:01:40;;;;;;;17.27;10.77;;;10.90;99.90;;;;;;5005338;28;20672;-60
2021/09/08 06:04:05;;;;;;;19.80;12.80;;;11.00;99.90;;;;;;5000478;28;21292;-60
2021/09/08 06:06:31;;;;;;;26.63;12.90;;;11.00;99.90;;;;;;5003973;28;20204;-60
2021/09/08 06:08:56;;;;;;;22.63;13.33;;;11.10;99.90;;;;;;5007723;28;20176;-60
2021/09/08 06:11:22;;;;;;;22.47;13.40;;;11.10;99.90;;;;;;5016652;28;20204;-60
2021/09/08 06:13:48;;;;;;;22.93;13.47;;;11.20;99.90;;;;;;5006831;28;20601;-59
2021/09/08 06:16:14;;;;;;;22.87;12.33;;;11.30;99.90;;;;;;5006787;28;20183;-61
2021/09/08 06:18:39;;;;;;;24.13;14.03;;;11.30;99.90;;;;;;5006247;28;20226;-59
2021/09/08 06:21:05;;;;;;;18.30;11.83;;;11.40;99.90;;;;;;5003399;28;20181;-59
2021/09/08 06:23:30;;;;;;;19.60;11.70;;;11.40;99.90;;;;;;5007057;28;20211;-59
2021/09/08 06:25:56;;;;;;;17.87;11.30;;;11.50;99.90;;;;;;5002882;28;20287;-61
2021/09/08 06:28:23;;;;;;;16.60;11.40;;;11.60;99.90;;;;;;5004975;28;20181;-60
2021/09/08 06:30:50;;;;;;;17.63;11.93;;;11.60;99.90;;;;;;5006471;28;20180;-59
2021/09/08 06:33:16;;;;;;;16.43;11.57;;;11.70;99.90;;;;;;5007723;28;20525;-59
2021/09/08 06:35:43;;;;;;;16.93;11.60;;;11.70;99.90;;;;;;4986426;28;20435;-58
2021/09/08 06:38:09;;;;;;;16.77;11.47;;;11.80;99.90;;;;;;5004237;28;20427;-59
2021/09/08 06:40:35;;;;;;;16.07;11.77;;;11.80;99.90;;;;;;5007487;28;20496;-58
2021/09/08 06:43:00;;;;;;;19.20;11.50;;;11.90;99.90;;;;;;5010953;28;20208;-60
2021/09/08 06:45:26;;;;;;;17.73;11.27;;;12.00;99.90;;;;;;5005340;28;20731;-60
2021/09/08 06:47:52;;;;;;;14.17;10.80;;;12.10;99.90;;;;;;5010228;28;20283;-60
2021/09/08 06:50:17;;;;;;;19.30;11.77;;;12.20;99.90;;;;;;5005323;28;20219;-60
2021/09/08 06:52:43;;;;;;;16.93;10.90;;;12.20;99.90;;;;;;4993080;28;20215;-61
2021/09/08 06:55:09;;;;;;;16.00;11.03;;;12.30;99.90;;;;;;5007558;28;20180;-60
2021/09/08 06:57:35;;;;;;;19.10;11.57;;;12.40;99.90;;;;;;5010755;28;20554;-60
2021/09/08 07:00:00;;;;;;;16.03;11.13;;;12.50;99.90;;;;;;5010927;28;20665;-60
2021/09/08 07:02:26;;;;;;;15.67;11.33;;;12.60;99.90;;;;;;5009374;28;20208;-60
2021/09/08 07:04:52;;;;;;;16.17;11.60;;;12.70;99.90;;;;;;5011242;28;20522;-61
2021/09/08 07:07:20;;;;;;;17.07;11.87;;;12.70;99.90;;;;;;5010058;28;20617;-60
2021/09/08 07:09:46;;;;;;;17.20;11.90;;;12.80;99.90;;;;;;5010170;28;20462;-59
2021/09/08 07:12:12;;;;;;;18.43;11.70;;;12.90;99.90;;;;;;5006320;28;20439;-60
2021/09/08 07:14:38;;;;;;;17.37;11.33;;;13.00;99.90;;;;;;5010959;28;20412;-58
2021/09/08 07:17:03;;;;;;;20.07;11.73;;;13.10;99.90;;;;;;4999239;28;20191;-60
2021/09/08 07:19:29;;;;;;;19.70;12.50;;;13.20;99.90;;;;;;5007739;28;20552;-60
2021/09/08 07:21:55;;;;;;;23.00;12.30;;;13.30;99.90;;;;;;5009806;28;20661;-60
2021/09/08 07:24:20;;;;;;;30.13;12.80;;;13.40;99.90;;;;;;4991708;28;20215;-59
2021/09/08 07:26:47;;;;;;;19.97;12.20;;;13.50;99.90;;;;;;5011268;28;20235;-60
2021/09/08 07:29:13;;;;;;;18.60;12.13;;;13.60;99.90;;;;;;5008132;28;20362;-60
2021/09/08 07:31:39;;;;;;;18.20;12.37;;;13.70;99.90;;;;;;4994878;28;20420;-59
2021/09/08 07:34:04;;;;;;;18.20;11.80;;;13.90;99.90;;;;;;5011181;28;20532;-60
2021/09/08 07:36:30;;;;;;;15.23;11.20;;;13.90;99.90;;;;;;5010838;28;20180;-61
2021/09/08 07:38:56;;;;;;;20.10;13.97;;;14.00;99.90;;;;;;4992138;28;20192;-60
2021/09/08 07:41:22;;;;;;;18.17;12.30;;;14.10;99.90;;;;;;5010831;28;20208;-60
2021/09/08 07:43:48;;;;;;;24.13;13.50;;;14.20;99.90;;;;;;5009939;28;20455;-60
2021/09/08 07:46:15;;;;;;;19.90;13.20;;;14.40;99.90;;;;;;5010722;28;20205;-60
2021/09/08 07:48:42;;;;;;;20.20;13.83;;;14.50;99.90;;;;;;5010826;28;20523;-60
2021/09/08 07:51:08;;;;;;;19.37;12.60;;;14.60;99.90;;;;;;5010564;28;20431;-60
2021/09/08 07:53:34;;;;;;;22.43;13.13;;;14.70;99.90;;;;;;5010005;28;20805;-60
2021/09/08 07:56:00;;;;;;;21.07;14.17;;;14.90;99.90;;;;;;5011260;28;20180;-61
2021/09/08 07:58:26;;;;;;;22.83;13.87;;;15.00;99.90;;;;;;5009511;28;20443;-61
2021/09/08 08:00:51;;;;;;;24.20;13.73;;;15.10;99.90;;;;;;5008589;28;20188;-60
2021/09/08 08:03:20;;;;;;;19.63;13.90;;;15.20;99.90;;;;;;5008620;28;20315;-60
2021/09/08 08:05:45;;;;;;;25.50;14.67;;;15.40;99.90;;;;;;5009836;28;20669;-60
2021/09/08 08:08:11;;;;;;;27.73;14.73;;;15.50;99.50;;;;;;4996985;28;20435;-60
2021/09/08 08:10:37;;;;;;;26.23;14.97;;;15.60;99.60;;;;;;5009871;28;20192;-60
2021/09/08 08:13:02;;;;;;;39.80;14.17;;;15.80;99.10;;;;;;4989061;28;20207;-60
2021/09/08 08:15:28;;;;;;;21.90;13.00;;;15.90;98.40;;;;;;4996400;28;20191;-60
2021/09/08 08:17:54;;;;;;;24.43;15.30;;;16.00;98.10;;;;;;5008605;28;20254;-60
2021/09/08 08:20:20;;;;;;;20.53;13.87;;;16.10;97.50;;;;;;4992615;28;20719;-60
2021/09/08 08:22:47;;;;;;;27.43;13.60;;;16.20;97.20;;;;;;5010613;28;20323;-61
2021/09/08 08:25:15;;;;;;;19.93;13.80;;;16.30;97.20;;;;;;5009206;28;21206;-61
2021/09/08 08:27:40;;;;;;;16.27;11.83;;;16.40;96.80;;;;;;5010658;28;20476;-60
2021/09/08 08:30:09;;;;;;;16.73;12.87;;;16.50;95.90;;;;;;5007406;28;20439;-60
2021/09/08 08:32:35;;;;;;;21.93;13.20;;;16.60;95.30;;;;;;4990461;28;20210;-60
2021/09/08 08:35:00;;;;;;;22.70;13.83;;;16.70;94.80;;;;;;5008429;28;20443;-60
2021/09/08 08:37:26;;;;;;;21.17;13.93;;;16.90;95.20;;;;;;5009336;28;20172;-62
2021/09/08 08:39:52;;;;;;;21.27;13.47;;;17.00;94.70;;;;;;5009035;28;20180;-61
2021/09/08 08:42:23;;;;;;;18.20;12.57;;;17.10;95.20;;;;;;5010184;28;20224;-60
2021/09/08 08:44:50;;;;;;;20.90;12.60;;;17.30;94.40;;;;;;5010429;28;20767;-60
2021/09/08 08:47:17;;;;;;;24.80;12.30;;;17.40;94.00;;;;;;5002728;28;20428;-60
2021/09/08 08:49:44;;;;;;;19.63;11.90;;;17.50;93.40;;;;;;5009457;28;20432;-61
2021/09/08 08:52:10;;;;;;;16.73;12.00;;;17.70;92.10;;;;;;5007877;28;20431;-60
2021/09/08 08:54:36;;;;;;;17.70;12.23;;;17.80;92.10;;;;;;4984869;28;20501;-61
2021/09/08 08:57:02;;;;;;;17.33;11.60;;;18.00;92.20;;;;;;5009560;28;20945;-61
2021/09/08 08:59:28;;;;;;;17.40;12.20;;;18.10;91.00;;;;;;5006895;28;20184;-60
2021/09/08 09:01:53;;;;;;;22.30;12.70;;;18.30;90.40;;;;;;5008719;28;20431;-60
2021/09/08 09:04:19;;;;;;;17.20;11.50;;;18.40;90.60;;;;;;5008586;28;20555;-61
2021/09/08 09:06:49;;;;;;;21.17;11.83;;;18.50;90.40;;;;;;5002790;28;20216;-63
2021/09/08 09:09:19;;;;;;;20.00;11.70;;;18.70;90.20;;;;;;5004330;28;20169;-61
2021/09/08 09:11:49;;;;;;;16.30;11.93;;;18.80;90.50;;;;;;5003040;28;20424;-61
2021/09/08 09:14:16;;;;;;;22.80;12.17;;;19.00;88.60;;;;;;5001424;28;20929;-59
2021/09/08 09:16:43;;;;;;;20.40;11.87;;;19.10;86.00;;;;;;4982138;28;20990;-61
2021/09/08 09:19:10;;;;;;;21.10;11.57;;;19.30;85.50;;;;;;4994718;28;20612;-63
2021/09/08 09:21:39;;;;;;;16.73;11.70;;;19.40;84.80;;;;;;5008683;28;20434;-61
2021/09/08 09:24:07;;;;;;;19.17;11.80;;;19.60;83.40;;;;;;5008604;28;20805;-61
2021/09/08 09:26:38;;;;;;;17.93;11.93;;;19.70;82.10;;;;;;5002033;28;20525;-62
2021/09/08 09:29:20;;;;;;;18.00;12.07;;;19.90;80.90;;;;;;5007337;28;20425;-61
2021/09/08 09:31:53;;;;;;;17.20;13.30;;;20.00;81.00;;;;;;5008592;28;20418;-60
2021/09/08 09:34:20;;;;;;;19.23;12.47;;;20.20;79.80;;;;;;5015265;28;20450;-60
2021/09/08 09:36:46;;;;;;;30.73;12.63;;;20.20;79.70;;;;;;5000271;28;20435;-60
2021/09/08 09:39:11;;;;;;;18.30;12.37;;;20.40;79.30;;;;;;5001846;28;20569;-60
2021/09/08 09:41:37;;;;;;;21.47;12.80;;;20.50;79.30;;;;;;5006444;28;20514;-60
2021/09/08 09:44:14;;;;;;;19.93;12.47;;;20.60;78.10;;;;;;5007354;28;20699;-60
2021/09/08 09:46:41;;;;;;;19.33;12.30;;;20.80;77.80;;;;;;5001748;28;20537;-61
2021/09/08 09:49:07;;;;;;;18.00;11.67;;;20.90;78.00;;;;;;5018673;28;20431;-62
2021/09/08 09:51:32;;;;;;;17.73;11.70;;;21.00;78.20;;;;;;5006651;28;20439;-60
2021/09/08 09:53:59;;;;;;;17.83;12.07;;;21.20;75.20;;;;;;5006394;28;20691;-60
2021/09/08 09:56:25;;;;;;;15.30;10.10;;;21.30;73.90;;;;;;5006480;28;20675;-63
2021/09/08 09:58:51;;;;;;;20.00;11.37;;;21.40;73.20;;;;;;5001391;28;20428;-60
2021/09/08 10:01:18;;;;;;;18.20;10.93;;;21.40;72.50;;;;;;5003786;28;20199;-61
2021/09/08 10:03:44;;;;;;;17.07;11.43;;;21.50;68.80;;;;;;5005192;28;20454;-61
2021/09/08 10:06:10;;;;;;;16.60;11.90;;;21.50;68.00;;;;;;5004599;28;20501;-60
2021/09/08 10:08:42;;;;;;;13.90;10.60;;;21.60;71.20;;;;;;5007106;28;20173;-61
2021/09/08 10:11:10;;;;;;;16.97;9.43;;;21.70;72.40;;;;;;5005598;28;20470;-60
2021/09/08 10:14:08;;;;;;;15.33;9.43;;;21.80;70.90;;;;;;5006925;28;20441;-61
2021/09/08 10:16:35;;;;;;;11.97;9.00;;;21.90;69.00;;;;;;5006587;28;20443;-61
2021/09/08 10:19:07;;;;;;;10.97;8.57;;;22.00;67.40;;;;;;5009771;28;20451;-62
2021/09/08 10:21:35;;;;;;;10.93;7.80;;;22.00;62.50;;;;;;4993323;28;20449;-61
2021/09/08 10:24:05;;;;;;;10.70;7.30;;;22.00;63.60;;;;;;5007000;28;21161;-61
2021/09/08 10:26:33;;;;;;;10.37;8.43;;;22.10;62.20;;;;;;5006332;28;20513;-61
2021/09/08 10:29:08;;;;;;;8.80;7.30;;;22.20;60.80;;;;;;5010149;28;20470;-60
2021/09/08 10:31:49;;;;;;;11.10;7.77;;;22.30;62.20;;;;;;5007180;28;20891;-61
2021/09/08 10:34:16;;;;;;;10.30;7.60;;;22.50;63.40;;;;;;5010762;28;20497;-61
2021/09/08 10:36:43;;;;;;;11.40;8.57;;;22.70;62.10;;;;;;5007455;28;20439;-62
2021/09/08 10:39:11;;;;;;;16.70;7.80;;;22.70;58.00;;;;;;5009391;28;20434;-63
2021/09/08 10:41:49;;;;;;;9.60;8.20;;;22.70;58.30;;;;;;4998378;28;20867;-62
2021/09/08 10:44:17;;;;;;;15.40;8.27;;;22.80;58.90;;;;;;5011492;28;20861;-61
2021/09/08 10:46:54;;;;;;;13.30;8.70;;;22.90;58.50;;;;;;5011210;28;20828;-62
2021/09/08 10:49:38;;;;;;;11.63;8.10;;;23.00;58.10;;;;;;5009188;28;20439;-63
2021/09/08 10:52:09;;;;;;;10.43;7.63;;;23.10;58.20;;;;;;5001341;28;20477;-62
2021/09/08 10:55:11;;;;;;;11.83;7.90;;;23.20;57.70;;;;;;5018682;28;20447;-57
2021/09/08 10:57:48;;;;;;;16.90;7.43;;;23.40;58.80;;;;;;4977011;28;20469;-63
2021/09/08 11:00:44;;;;;;;10.23;7.10;;;23.60;59.30;;;;;;5000894;28;20867;-61
2021/09/08 11:03:15;;;;;;;10.73;7.30;;;23.80;57.30;;;;;;4980200;28;20459;-61
2021/09/08 11:05:55;;;;;;;11.50;8.33;;;23.90;56.40;;;;;;4992557;28;20528;-63
2021/09/08 11:08:25;;;;;;;12.83;8.30;;;24.00;55.90;;;;;;4995768;28;20441;-59
2021/09/08 11:11:30;;;;;;;8.67;6.70;;;24.10;56.00;;;;;;4995256;28;20438;-59
2021/09/08 11:13:56;;;;;;;8.13;6.67;;;24.30;56.90;;;;;;4994714;28;20497;-62
2021/09/08 11:16:25;;;;;;;9.47;6.00;;;24.50;56.90;;;;;;4991862;28;22457;-59
2021/09/08 11:18:56;;;;;;;10.53;6.57;;;24.60;52.70;;;;;;4993332;28;20209;-64
2021/09/08 11:21:32;;;;;;;7.97;7.17;;;24.70;53.40;;;;;;5000604;28;21680;-59
2021/09/08 11:24:11;;;;;;;7.90;6.80;;;24.90;54.10;;;;;;4992703;28;20827;-60
2021/09/08 11:26:38;;;;;;;7.50;6.27;;;24.90;52.30;;;;;;4994592;28;21125;-61
2021/09/08 11:29:12;;;;;;;8.20;6.13;;;25.10;52.80;;;;;;4995951;28;20435;-61
2021/09/08 11:31:43;;;;;;;9.77;6.60;;;25.20;51.80;;;;;;5002649;28;20430;-61
2021/09/08 11:34:24;;;;;;;9.43;6.43;;;25.40;51.60;;;;;;5004479;28;20455;-61
2021/09/08 11:36:52;;;;;;;8.27;6.23;;;25.50;51.80;;;;;;5000981;28;20470;-62
2021/09/08 11:39:18;;;;;;;7.57;6.30;;;25.70;49.50;;;;;;5002850;28;21059;-63
2021/09/08 11:42:02;;;;;;;7.70;6.13;;;25.70;50.50;;;;;;4996742;28;20553;-61
2021/09/08 11:44:28;;;;;;;7.23;6.13;;;25.90;51.10;;;;;;4995413;28;20446;-62
2021/09/08 11:46:55;;;;;;;11.90;6.47;;;26.10;50.40;;;;;;5003044;28;20505;-63
2021/09/08 11:49:21;;;;;;;10.27;6.47;;;26.20;49.20;;;;;;4999783;28;20439;-61
2021/09/08 11:51:46;;;;;;;8.70;6.90;;;26.30;48.80;;;;;;5003873;28;20442;-63
2021/09/08 11:54:21;;;;;;;8.77;6.20;;;26.40;48.30;;;;;;5000755;28;20235;-61
2021/09/08 11:56:56;;;;;;;7.87;5.30;;;26.60;50.30;;;;;;4994640;28;20267;-64
2021/09/08 11:59:26;;;;;;;8.87;6.07;;;26.70;49.20;;;;;;5004530;28;20541;-62
2021/09/08 12:01:52;;;;;;;6.20;5.60;;;27.00;49.20;;;;;;5003773;28;20441;-62
2021/09/08 12:04:17;;;;;;;10.10;6.10;;;27.20;49.10;;;;;;5003847;28;20471;-62
2021/09/08 12:07:03;;;;;;;7.50;5.70;;;27.40;47.70;;;;;;5003290;28;20203;-61
2021/09/08 12:09:30;;;;;;;6.00;5.40;;;27.60;46.70;;;;;;5002390;28;20574;-60
2021/09/08 12:11:58;;;;;;;8.10;5.47;;;27.70;45.70;;;;;;4999266;28;20439;-61
2021/09/08 12:14:25;;;;;;;7.53;5.67;;;27.80;44.60;;;;;;4986996;28;20459;-61
2021/09/08 12:16:54;;;;;;;10.00;5.83;;;27.80;44.30;;;;;;4987520;28;20442;-62
2021/09/08 12:19:26;;;;;;;9.13;5.57;;;27.70;43.50;;;;;;4998649;28;20545;-65
2021/09/08 12:21:52;;;;;;;8.50;6.00;;;27.70;45.00;;;;;;5001134;28;20434;-61
2021/09/08 12:24:29;;;;;;;7.03;5.10;;;27.80;45.70;;;;;;4996044;28;20454;-61
2021/09/08 12:26:57;;;;;;;6.07;4.97;;;28.00;45.70;;;;;;4997273;28;20769;-60
2021/09/08 12:29:23;;;;;;;6.07;4.43;;;28.10;43.80;;;;;;4997860;28;20473;-63
2021/09/08 12:31:52;;;;;;;8.47;5.33;;;28.10;42.90;;;;;;4997157;28;20433;-61